createdAt,value
2019-02-21T00:01:05.519Z,16.70
2019-02-21T00:04:05.012Z,14.83
2019-02-21T00:07:04.158Z,16.20
2019-02-21T00:10:03.332Z,15.57
2019-02-21T00:13:02.642Z,16.43
2019-02-21T00:16:01.667Z,16.30
2019-02-21T00:19:01.494Z,16.60
2019-02-21T00:22:00.541Z,16.77
2019-02-21T00:24:59.716Z,16.23
2019-02-21T00:27:58.833Z,16.07
2019-02-21T00:30:57.940Z,16.13
2019-02-21T00:33:57.864Z,17.03
2019-02-21T00:36:57.834Z,17.30
2019-02-21T00:39:57.853Z,15.53
2019-02-21T00:42:57.201Z,15.67
2019-02-21T00:45:56.369Z,15.23
2019-02-21T00:48:55.513Z,16.00
2019-02-21T00:51:55.067Z,15.90
2019-02-21T00:54:54.260Z,16.33
2019-02-21T00:57:53.260Z,15.77
2019-02-21T01:00:52.488Z,15.50
2019-02-21T01:03:52.421Z,15.27
2019-02-21T01:06:51.636Z,15.50
2019-02-21T01:09:51.712Z,15.77
2019-02-21T01:12:51.116Z,14.87
2019-02-21T01:15:50.637Z,14.23
2019-02-21T01:18:50.628Z,14.50
2019-02-21T01:21:49.716Z,15.47
2019-02-21T01:24:48.979Z,14.70
2019-02-21T01:27:48.234Z,15.20
2019-02-21T01:30:56.633Z,15.80
2019-02-21T01:33:48.547Z,15.63
2019-02-21T01:36:48.578Z,15.17
2019-02-21T01:39:47.807Z,14.70
2019-02-21T01:42:47.476Z,15.57
2019-02-21T01:45:47.561Z,15.30
2019-02-21T01:48:47.702Z,15.60
2019-02-21T01:51:48.046Z,15.30
2019-02-21T01:54:48.364Z,14.63
2019-02-21T01:57:48.560Z,15.20
2019-02-21T02:00:48.710Z,15.60
2019-02-21T02:03:48.973Z,15.07
2019-02-21T02:06:49.229Z,15.37
2019-02-21T02:09:49.431Z,15.03
2019-02-21T02:12:49.720Z,14.67
2019-02-21T02:15:49.741Z,15.20
2019-02-21T02:18:49.997Z,15.33
2019-02-21T02:21:49.865Z,15.20
2019-02-21T02:24:50.427Z,15.80
2019-02-21T02:27:50.281Z,15.27
2019-02-21T02:30:50.462Z,17.00
2019-02-21T02:33:50.751Z,16.13
2019-02-21T02:36:51.293Z,16.07
2019-02-21T02:39:51.468Z,16.27
2019-02-21T02:42:51.581Z,16.13
2019-02-21T02:45:52.086Z,15.67
2019-02-21T02:48:52.295Z,16.67
2019-02-21T02:51:52.503Z,15.97
2019-02-21T02:54:52.629Z,16.77
2019-02-21T02:57:52.916Z,16.30
2019-02-21T03:00:53.138Z,16.70
2019-02-21T03:03:53.518Z,16.37
2019-02-21T03:06:53.745Z,17.73
2019-02-21T03:09:54.171Z,17.13
2019-02-21T03:12:53.601Z,17.20
2019-02-21T03:15:53.665Z,17.20
2019-02-21T03:18:53.617Z,17.43
2019-02-21T03:21:52.757Z,18.17
2019-02-21T03:24:51.800Z,17.37
2019-02-21T03:27:51.299Z,17.17
2019-02-21T03:30:50.603Z,16.90
2019-02-21T03:33:49.762Z,16.43
2019-02-21T03:36:49.287Z,17.07
2019-02-21T03:39:48.567Z,16.60
2019-02-21T03:42:48.116Z,16.40
2019-02-21T03:45:47.364Z,17.17
2019-02-21T03:48:46.715Z,17.17
2019-02-21T03:51:46.122Z,16.90
2019-02-21T03:54:45.467Z,15.63
2019-02-21T03:57:44.775Z,16.33
2019-02-21T04:00:44.823Z,15.93
2019-02-21T04:03:44.152Z,16.70
2019-02-21T04:06:43.379Z,17.67
2019-02-21T04:09:42.693Z,16.33
2019-02-21T04:12:41.908Z,17.57
2019-02-21T04:15:41.317Z,17.63
2019-02-21T04:18:40.591Z,16.33
2019-02-21T04:21:39.693Z,16.97
2019-02-21T04:24:39.071Z,16.80
2019-02-21T04:27:38.285Z,16.77
2019-02-21T04:30:37.452Z,16.60
2019-02-21T04:33:36.673Z,16.23
2019-02-21T04:36:35.751Z,16.43
2019-02-21T04:39:34.822Z,14.93
2019-02-21T04:42:34.234Z,15.97
2019-02-21T04:45:33.458Z,15.63
2019-02-21T04:48:32.533Z,15.60
2019-02-21T04:51:31.656Z,15.17
2019-02-21T04:54:31.036Z,15.43
2019-02-21T04:57:30.989Z,15.87
2019-02-21T05:00:30.147Z,15.17
2019-02-21T05:03:29.452Z,16.10
2019-02-21T05:06:29.641Z,15.30
2019-02-21T05:09:28.785Z,16.30
2019-02-21T05:12:28.867Z,15.40
2019-02-21T05:15:28.177Z,15.90
2019-02-21T05:18:27.983Z,16.40
2019-02-21T05:21:27.340Z,16.30
2019-02-21T05:24:26.542Z,16.77
2019-02-21T05:27:27.691Z,17.83
2019-02-21T05:30:27.368Z,16.73
2019-02-21T05:33:47.077Z,16.50
2019-02-21T05:37:10.520Z,17.13
2019-02-21T05:40:29.776Z,17.93
2019-02-21T05:43:37.382Z,18.93
2019-02-21T05:50:10.912Z,17.40
2019-02-21T05:53:16.292Z,18.03
2019-02-21T05:56:17.568Z,19.63
2019-02-21T05:59:18.689Z,19.70
2019-02-21T06:05:34.062Z,21.97
2019-02-21T06:08:35.279Z,22.07
2019-02-21T06:11:36.406Z,21.03
2019-02-21T06:14:40.763Z,23.03
2019-02-21T06:17:41.862Z,24.00
2019-02-21T06:24:28.467Z,22.80
2019-02-21T06:30:44.254Z,23.57
2019-02-21T06:33:43.393Z,23.00
2019-02-21T06:36:43.356Z,23.17
2019-02-21T06:39:42.419Z,23.50
2019-02-21T06:42:41.533Z,23.43
2019-02-21T06:45:40.858Z,24.60
2019-02-21T06:48:39.995Z,23.30
2019-02-21T06:51:40.005Z,22.50
2019-02-21T06:54:40.028Z,22.63
2019-02-21T06:57:40.300Z,23.93
2019-02-21T07:00:39.494Z,22.93
2019-02-21T07:03:38.581Z,22.90
2019-02-21T07:06:39.337Z,23.77
2019-02-21T07:09:25.905Z,22.90
2019-02-21T07:12:32.049Z,22.27
2019-02-21T07:15:31.246Z,22.03
2019-02-21T07:18:31.197Z,22.23
2019-02-21T07:21:31.152Z,22.70
2019-02-21T07:24:31.598Z,23.90
2019-02-21T07:27:31.305Z,22.10
2019-02-21T07:30:31.226Z,22.60
2019-02-21T07:33:31.270Z,21.40
2019-02-21T07:36:31.367Z,23.03
2019-02-21T07:39:36.172Z,22.33
2019-02-21T07:42:31.562Z,22.57
2019-02-21T07:45:30.985Z,21.80
2019-02-21T07:48:30.201Z,21.97
2019-02-21T07:51:29.353Z,21.30
2019-02-21T07:54:28.660Z,20.43
2019-02-21T07:57:27.793Z,21.07
2019-02-21T08:00:27.062Z,21.07
2019-02-21T08:03:31.981Z,20.43
2019-02-21T08:06:27.749Z,21.27
2019-02-21T08:09:27.933Z,19.83
2019-02-21T08:12:28.065Z,21.00
2019-02-21T08:15:27.862Z,20.47
2019-02-21T08:18:27.353Z,20.60
2019-02-21T08:21:26.801Z,20.33
2019-02-21T08:24:26.096Z,21.93
2019-02-21T08:27:25.471Z,21.33
2019-02-21T08:30:24.789Z,20.90
2019-02-21T08:33:28.874Z,21.73
2019-02-21T08:36:28.142Z,22.13
2019-02-21T08:39:27.599Z,21.97
2019-02-21T08:42:26.937Z,21.87
2019-02-21T08:45:26.283Z,23.17
2019-02-21T08:48:25.429Z,22.17
2019-02-21T08:51:24.507Z,23.03
2019-02-21T08:54:24.471Z,23.80
2019-02-21T08:57:23.707Z,22.50
2019-02-21T09:00:22.802Z,22.27
2019-02-21T09:03:21.983Z,24.10
2019-02-21T09:06:21.587Z,24.63
2019-02-21T09:09:21.437Z,22.43
2019-02-21T09:12:20.627Z,23.03
2019-02-21T09:15:19.799Z,22.77
2019-02-21T09:18:19.061Z,24.03
2019-02-21T09:21:18.574Z,23.60
2019-02-21T09:24:35.261Z,22.60
2019-02-21T09:27:18.824Z,23.17
2019-02-21T09:30:17.950Z,22.37
2019-02-21T09:33:20.254Z,22.17
2019-02-21T09:36:18.991Z,21.80
2019-02-21T09:39:18.119Z,21.13
2019-02-21T09:42:17.969Z,21.03
2019-02-21T09:45:17.295Z,21.00
2019-02-21T09:48:17.198Z,20.70
2019-02-21T09:51:18.354Z,21.27
2019-02-21T09:54:19.157Z,20.47
2019-02-21T09:57:18.238Z,21.57
2019-02-21T10:00:18.215Z,20.90
2019-02-21T10:03:18.250Z,19.00
2019-02-21T10:06:17.600Z,19.27
2019-02-21T10:09:17.655Z,19.53
2019-02-21T10:12:16.740Z,19.37
2019-02-21T10:15:16.047Z,19.20
2019-02-21T10:18:15.483Z,18.73
2019-02-21T10:21:15.466Z,19.17
2019-02-21T10:24:15.330Z,20.27
2019-02-21T10:27:14.511Z,20.63
2019-02-21T10:30:14.511Z,21.37
2019-02-21T10:33:13.608Z,21.93
2019-02-21T10:36:13.528Z,21.50
2019-02-21T10:39:13.546Z,21.90
2019-02-21T10:42:13.474Z,22.93
2019-02-21T10:45:13.506Z,24.10
2019-02-21T10:48:12.870Z,23.57
2019-02-21T10:51:12.176Z,23.97
2019-02-21T10:54:11.412Z,23.90
2019-02-21T10:57:10.785Z,23.93
2019-02-21T11:00:09.919Z,24.57
2019-02-21T11:03:10.034Z,23.60
2019-02-21T11:06:09.391Z,24.47
2019-02-21T11:09:10.547Z,25.53
2019-02-21T11:12:09.927Z,24.53
2019-02-21T11:15:09.267Z,23.10
2019-02-21T11:18:08.447Z,24.10
2019-02-21T11:21:07.539Z,24.60
2019-02-21T11:24:06.831Z,25.40
2019-02-21T11:27:05.928Z,26.10
2019-02-21T11:30:04.985Z,25.83
2019-02-21T11:33:04.234Z,26.70
2019-02-21T11:36:04.137Z,26.67
2019-02-21T11:39:04.003Z,27.13
2019-02-21T11:42:03.521Z,28.53
2019-02-21T11:45:02.697Z,28.90
2019-02-21T11:48:02.039Z,31.40
2019-02-21T11:51:01.202Z,30.83
2019-02-21T11:54:00.296Z,29.97
2019-02-21T11:56:59.451Z,29.70
2019-02-21T11:59:58.734Z,30.97
2019-02-21T12:02:58.255Z,31.20
2019-02-21T12:05:57.506Z,30.57
2019-02-21T12:08:56.685Z,31.17
2019-02-21T12:11:55.837Z,30.43
2019-02-21T12:14:55.939Z,30.90
2019-02-21T12:17:55.155Z,30.97
2019-02-21T12:20:55.165Z,30.07
2019-02-21T12:23:54.317Z,29.90
2019-02-21T12:26:53.629Z,29.40
2019-02-21T12:29:52.993Z,31.07
2019-02-21T12:32:52.492Z,31.03
2019-02-21T12:35:52.705Z,29.47
2019-02-21T12:38:39.084Z,30.87
2019-02-21T12:41:45.343Z,30.47
2019-02-21T12:44:44.410Z,29.40
2019-02-21T12:47:50.966Z,29.70
2019-02-21T12:50:45.071Z,27.37
2019-02-21T12:53:44.284Z,27.63
2019-02-21T12:56:43.631Z,27.83
2019-02-21T12:59:42.777Z,26.83
2019-02-21T13:02:42.062Z,28.00
2019-02-21T13:05:41.541Z,27.50
2019-02-21T13:08:42.659Z,28.60
2019-02-21T13:11:41.943Z,27.33
2019-02-21T13:14:42.054Z,25.80
2019-02-21T13:17:41.291Z,24.77
2019-02-21T13:20:40.793Z,24.40
2019-02-21T13:23:42.701Z,23.13
2019-02-21T13:26:41.325Z,24.10
2019-02-21T13:29:41.409Z,24.43
2019-02-21T13:32:41.703Z,24.57
2019-02-21T13:35:52.243Z,24.67
2019-02-21T13:38:43.713Z,24.17
2019-02-21T13:41:42.898Z,22.67
2019-02-21T13:44:42.649Z,22.73
2019-02-21T13:47:42.875Z,22.70
2019-02-21T13:50:43.180Z,21.67
2019-02-21T13:53:43.440Z,21.03
2019-02-21T13:56:42.630Z,22.10
2019-02-21T13:59:42.574Z,21.83
2019-02-21T14:02:41.869Z,22.70
2019-02-21T14:05:41.861Z,22.17
2019-02-21T14:08:41.799Z,23.40
2019-02-21T14:11:40.928Z,23.77
2019-02-21T14:14:42.517Z,24.03
2019-02-21T14:17:42.002Z,24.63
2019-02-21T14:20:45.570Z,24.80
2019-02-21T14:23:42.252Z,26.07
2019-02-21T14:26:42.140Z,24.57
2019-02-21T14:29:41.363Z,24.43
2019-02-21T14:32:40.469Z,24.97
2019-02-21T14:35:40.481Z,25.17
2019-02-21T14:38:39.713Z,25.43
2019-02-21T14:41:39.721Z,25.10
2019-02-21T14:44:38.990Z,25.37
2019-02-21T14:47:38.302Z,25.60
2019-02-21T14:50:37.630Z,24.60
2019-02-21T14:53:36.786Z,23.47
2019-02-21T14:56:36.225Z,25.10
2019-02-21T14:59:35.505Z,24.13
2019-02-21T15:02:34.792Z,23.70
2019-02-21T15:05:33.806Z,23.20
2019-02-21T15:08:32.874Z,22.57
2019-02-21T15:11:32.019Z,22.10
2019-02-21T15:14:31.922Z,21.77
2019-02-21T15:17:30.975Z,20.87
2019-02-21T15:20:36.862Z,21.17
2019-02-21T15:23:31.411Z,20.97
2019-02-21T15:26:31.410Z,21.30
2019-02-21T15:29:31.463Z,21.93
2019-02-21T15:32:30.849Z,20.63
2019-02-21T15:35:29.878Z,20.93
2019-02-21T15:38:29.842Z,20.97
2019-02-21T15:41:29.058Z,20.80
2019-02-21T15:44:28.430Z,20.23
2019-02-21T15:47:27.659Z,22.27
2019-02-21T15:50:27.055Z,22.23
2019-02-21T15:53:27.108Z,21.07
2019-02-21T15:56:27.155Z,20.67
2019-02-21T15:59:27.199Z,20.77
2019-02-21T16:02:27.168Z,20.33
2019-02-21T16:05:26.543Z,20.23
2019-02-21T16:08:26.496Z,17.97
2019-02-21T16:11:25.865Z,18.60
2019-02-21T16:14:25.049Z,17.60
2019-02-21T16:17:24.492Z,17.40
2019-02-21T16:20:23.742Z,17.90
2019-02-21T16:23:23.625Z,16.77
2019-02-21T16:26:23.610Z,17.10
2019-02-21T16:29:22.957Z,17.70
2019-02-21T16:32:22.398Z,17.33
2019-02-21T16:35:22.562Z,18.23
2019-02-21T16:38:21.681Z,16.37
2019-02-21T16:41:21.828Z,18.47
2019-02-21T16:44:21.021Z,17.43
2019-02-21T16:47:21.119Z,22.67
2019-02-21T16:50:29.206Z,19.83
2019-02-21T16:53:21.619Z,21.07
2019-02-21T16:56:20.766Z,22.27
2019-02-21T16:59:20.143Z,20.47
2019-02-21T17:02:19.578Z,20.47
2019-02-21T17:05:18.862Z,19.57
2019-02-21T17:08:18.153Z,20.37
2019-02-21T17:11:17.489Z,19.77
2019-02-21T17:14:17.650Z,19.10
2019-02-21T17:17:16.911Z,21.20
2019-02-21T17:20:16.140Z,20.13
2019-02-21T17:23:22.845Z,20.60
2019-02-21T17:26:18.172Z,20.93
2019-02-21T17:29:17.471Z,20.97
2019-02-21T17:32:17.605Z,22.60
2019-02-21T17:35:16.902Z,21.60
2019-02-21T17:38:16.209Z,21.57
2019-02-21T17:41:16.420Z,22.93
2019-02-21T17:44:15.696Z,21.33
2019-02-21T17:47:15.137Z,21.03
2019-02-21T17:50:15.147Z,21.13
2019-02-21T17:53:14.306Z,19.53
2019-02-21T17:56:13.564Z,21.47
2019-02-21T17:59:12.755Z,19.53
2019-02-21T18:02:12.119Z,18.70
2019-02-21T18:05:11.440Z,17.90
2019-02-21T18:08:10.691Z,16.60
2019-02-21T18:11:12.615Z,16.60
2019-02-21T18:14:12.087Z,16.67
2019-02-21T18:17:12.294Z,15.27
2019-02-21T18:20:12.295Z,16.60
2019-02-21T18:23:12.597Z,18.23
2019-02-21T18:26:12.679Z,18.40
2019-02-21T18:29:12.059Z,17.50
2019-02-21T18:32:12.138Z,20.20
2019-02-21T18:35:12.299Z,21.73
2019-02-21T18:38:12.355Z,21.50
2019-02-21T18:41:11.414Z,22.00
2019-02-21T18:44:10.831Z,23.47
2019-02-21T18:47:09.994Z,24.00
2019-02-21T18:50:09.267Z,24.30
2019-02-21T18:53:08.558Z,24.97
2019-02-21T18:56:08.632Z,24.73
2019-02-21T18:59:08.669Z,25.33
2019-02-21T19:02:08.158Z,25.23
2019-02-21T19:05:08.439Z,25.17
2019-02-21T19:08:08.536Z,25.47
2019-02-21T19:11:08.362Z,25.93
2019-02-21T19:14:08.562Z,26.03
2019-02-21T19:17:08.851Z,26.50
2019-02-21T19:20:09.215Z,24.83
2019-02-21T19:23:09.318Z,27.00
2019-02-21T19:26:09.349Z,27.20
2019-02-21T19:29:09.500Z,28.77
2019-02-21T19:32:09.646Z,29.40
2019-02-21T19:35:09.775Z,29.83
2019-02-21T19:38:11.018Z,31.33
2019-02-21T19:41:11.177Z,32.20
2019-02-21T19:44:10.994Z,33.80
2019-02-21T19:47:11.370Z,33.90
2019-02-21T19:50:11.246Z,38.10
2019-02-21T19:53:11.304Z,40.60
2019-02-21T19:56:11.471Z,39.67
2019-02-21T19:59:11.495Z,38.63
2019-02-21T20:05:06.602Z,38.70
2019-02-21T20:07:52.404Z,38.93
2019-02-21T20:10:38.276Z,38.67
2019-02-21T20:13:23.964Z,39.33
2019-02-21T20:16:09.568Z,39.00
2019-02-21T20:18:54.572Z,38.13
2019-02-21T20:21:39.800Z,39.43
2019-02-21T20:24:25.015Z,40.27
2019-02-21T20:27:10.308Z,38.80
2019-02-21T20:29:55.581Z,39.00
2019-02-21T20:32:41.012Z,37.40
2019-02-21T20:35:26.165Z,38.70
2019-02-21T20:38:11.554Z,37.63
2019-02-21T20:40:56.827Z,37.63
2019-02-21T20:43:42.504Z,40.17
2019-02-21T20:46:27.986Z,39.13
2019-02-21T20:49:13.493Z,41.23
2019-02-21T20:51:59.048Z,41.17
2019-02-21T20:54:44.780Z,40.07
2019-02-21T20:57:30.169Z,43.33
2019-02-21T21:00:17.619Z,43.23
2019-02-21T21:03:02.852Z,42.47
2019-02-21T21:05:47.706Z,46.23
2019-02-21T21:08:42.751Z,46.13
2019-02-21T21:11:20.183Z,49.77
2019-02-21T21:14:05.906Z,45.70
2019-02-21T21:16:51.198Z,47.03
2019-02-21T21:19:36.670Z,47.00
2019-02-21T21:22:22.292Z,45.67
2019-02-21T21:25:13.678Z,44.67
2019-02-21T21:27:59.124Z,45.33
2019-02-21T21:30:44.448Z,46.43
2019-02-21T21:33:29.831Z,48.47
2019-02-21T21:36:14.749Z,48.83
2019-02-21T21:38:59.652Z,49.30
2019-02-21T21:41:45.195Z,48.80
2019-02-21T21:44:30.356Z,49.63
2019-02-21T21:47:15.931Z,47.40
2019-02-21T21:50:01.310Z,46.50
2019-02-21T21:52:46.730Z,49.23
2019-02-21T21:55:31.999Z,48.17
2019-02-21T21:58:17.291Z,47.70
2019-02-21T22:01:03.113Z,48.03
2019-02-21T22:03:47.966Z,45.57
2019-02-21T22:06:33.454Z,48.27
2019-02-21T22:09:18.259Z,48.13
2019-02-21T22:12:03.905Z,47.37
2019-02-21T22:14:49.257Z,48.63
2019-02-21T22:17:36.093Z,46.83
2019-02-21T22:20:21.491Z,47.77
2019-02-21T22:23:06.668Z,48.97
2019-02-21T22:25:51.564Z,47.60
2019-02-21T22:28:36.715Z,46.70
2019-02-21T22:31:21.480Z,48.20
2019-02-21T22:34:06.389Z,47.27
2019-02-21T22:36:51.255Z,47.43
2019-02-21T22:39:36.743Z,47.80
2019-02-21T22:42:21.821Z,45.20
2019-02-21T22:45:08.156Z,47.37
2019-02-21T22:47:53.172Z,45.37
2019-02-21T22:50:37.892Z,46.00
2019-02-21T22:53:24.016Z,46.17
2019-02-21T22:56:09.042Z,46.20
2019-02-21T22:58:54.581Z,46.27
2019-02-21T23:01:39.781Z,46.00
2019-02-21T23:04:28.005Z,46.97
2019-02-21T23:07:25.762Z,45.10
2019-02-21T23:10:11.363Z,46.37
2019-02-21T23:12:56.539Z,45.63
2019-02-21T23:15:41.503Z,44.30
2019-02-21T23:18:26.595Z,46.53
2019-02-21T23:21:12.160Z,47.30
2019-02-21T23:23:57.112Z,45.83
2019-02-21T23:26:42.140Z,45.17
2019-02-21T23:29:27.345Z,45.83
2019-02-21T23:32:12.770Z,44.60
2019-02-21T23:34:59.083Z,45.77
2019-02-21T23:37:44.193Z,46.83
2019-02-21T23:40:29.038Z,46.17
2019-02-21T23:43:14.222Z,43.83
2019-02-21T23:45:59.800Z,47.27
2019-02-21T23:48:45.062Z,45.60
2019-02-21T23:51:30.303Z,46.10
2019-02-21T23:54:15.157Z,46.73
2019-02-21T23:57:00.085Z,45.10
2019-02-21T23:59:44.855Z,43.73
